Eyemouth, United Kingdom
Current Conditions -  °F | °C
As of 12:50 AM on Wednesday 28 Jan 2015 (Local Time) from EGQM Reporting Station
Broken Clouds Broken Clouds  
Wind Chill: 36°   Ceiling: 10000
Heat Index: 45°   Visibility: 6mi
Dew Point: 41°   Wind: 22mph
Humidity: 87%   Direction: 220°SW
Pressure: 29.65"   Gusts: 33mph
Location:  55.87°N, 2.09°W
Report Text: EGQM 280050Z AUTO 22019G29KT 9999 FEW020/// BKN100/// 07/05 Q1004
Loading
Personal Weather Stations






























Interactive Weather Map New forecast layout! Learn more

10-Day Weather Forecast

Advertisements
Track Severe Weather on mobile